createdAt,value
2019-03-01T00:02:03.307Z,32.30
2019-03-01T00:05:00.449Z,28.83
2019-03-01T00:07:57.572Z,33.07
2019-03-01T00:11:05.644Z,33.93
2019-03-01T00:14:13.734Z,34.53
2019-03-01T00:17:21.843Z,30.60
2019-03-01T00:20:13.736Z,28.97
2019-03-01T00:23:21.881Z,28.27
2019-03-01T00:26:29.934Z,26.70
2019-03-01T00:29:38.065Z,23.73
2019-03-01T00:32:46.159Z,25.30
2019-03-01T00:36:14.904Z,23.95
2019-03-01T00:39:07.938Z,24.00
2019-03-01T00:42:17.621Z,19.77
2019-03-01T00:44:48.391Z,22.07
2019-03-01T00:47:25.000Z,20.50
2019-03-01T00:49:54.512Z,19.43
2019-03-01T00:52:24.177Z,22.22
2019-03-01T00:54:53.747Z,22.83
2019-03-01T00:57:23.329Z,19.47
2019-03-01T00:59:52.925Z,19.32
2019-03-01T01:02:22.473Z,20.90
2019-03-01T01:04:52.192Z,21.70
2019-03-01T01:07:21.903Z,19.23
2019-03-01T01:09:51.430Z,19.92
2019-03-01T01:15:10.200Z,20.67
2019-03-01T01:17:40.436Z,20.37
2019-03-01T01:20:10.435Z,21.68
2019-03-01T01:22:40.201Z,19.20
2019-03-01T01:25:10.347Z,20.20
2019-03-01T01:27:41.112Z,19.45
2019-03-01T01:30:17.346Z,20.23
2019-03-01T01:32:46.953Z,20.57
2019-03-01T01:35:16.509Z,23.23
2019-03-01T01:37:46.097Z,18.87
2019-03-01T01:40:15.601Z,19.03
2019-03-01T01:42:45.183Z,20.75
2019-03-01T01:45:14.782Z,22.43
2019-03-01T01:47:44.314Z,21.80
2019-03-01T01:50:14.018Z,20.17
2019-03-01T01:52:43.622Z,20.47
2019-03-01T01:55:13.166Z,20.68
2019-03-01T01:57:42.796Z,19.40
2019-03-01T02:03:14.282Z,22.67
2019-03-01T02:05:43.900Z,19.90
2019-03-01T02:08:13.458Z,20.10
2019-03-01T02:10:43.036Z,19.20
2019-03-01T02:13:14.186Z,19.77
2019-03-01T02:15:43.693Z,19.50
2019-03-01T02:18:13.896Z,18.92
2019-03-01T02:20:43.420Z,21.07
2019-03-01T02:23:13.181Z,20.30
2019-03-01T02:25:42.921Z,19.80
2019-03-01T02:28:12.477Z,21.70
2019-03-01T02:30:42.062Z,21.90
2019-03-01T02:33:11.617Z,20.87
2019-03-01T02:35:41.578Z,20.47
2019-03-01T02:38:11.165Z,24.80
2019-03-01T02:40:40.675Z,20.33
2019-03-01T02:43:10.839Z,21.60
2019-03-01T02:45:40.605Z,21.30
2019-03-01T02:48:10.660Z,22.70
2019-03-01T02:50:40.768Z,21.52
2019-03-01T02:53:10.683Z,23.32
2019-03-01T02:55:40.829Z,21.50
2019-03-01T02:58:10.746Z,21.60
2019-03-01T03:00:40.921Z,22.87
2019-03-01T03:03:10.758Z,23.57
2019-03-01T03:08:45.673Z,21.53
2019-03-01T03:11:15.192Z,22.70
2019-03-01T03:13:44.784Z,20.43
2019-03-01T03:16:14.353Z,19.10
2019-03-01T03:18:44.002Z,19.93
2019-03-01T03:21:13.491Z,21.23
2019-03-01T03:23:43.089Z,21.83
2019-03-01T03:26:12.700Z,20.10
2019-03-01T03:28:42.233Z,22.50
2019-03-01T03:31:11.883Z,21.17
2019-03-01T03:33:41.667Z,21.20
2019-03-01T03:36:11.182Z,21.43
2019-03-01T03:38:40.850Z,21.30
2019-03-01T03:41:11.091Z,20.77
2019-03-01T03:43:40.898Z,21.97
2019-03-01T03:46:10.949Z,23.65
2019-03-01T03:48:40.891Z,24.23
2019-03-01T03:51:11.559Z,19.90
2019-03-01T03:53:41.617Z,20.20
2019-03-01T03:56:11.222Z,23.27
2019-03-01T03:58:41.113Z,22.20
2019-03-01T04:01:11.341Z,23.30
2019-03-01T04:03:41.219Z,21.40
2019-03-01T04:06:11.136Z,23.27
2019-03-01T04:08:41.197Z,21.77
2019-03-01T04:11:11.295Z,20.62
2019-03-01T04:13:41.155Z,21.60
2019-03-01T04:16:11.395Z,21.48
2019-03-01T04:18:41.160Z,21.93
2019-03-01T04:21:11.500Z,23.15
2019-03-01T04:24:00.178Z,24.67
2019-03-01T04:26:35.419Z,21.50
2019-03-01T04:29:04.996Z,22.15
2019-03-01T04:31:53.664Z,22.65
2019-03-01T04:34:42.244Z,23.10
2019-03-01T04:37:11.759Z,23.80
2019-03-01T04:40:00.426Z,23.40
2019-03-01T04:42:29.968Z,21.65
2019-03-01T04:44:59.506Z,24.30
2019-03-01T04:47:29.179Z,24.45
2019-03-01T04:49:58.733Z,20.95
2019-03-01T04:52:47.510Z,26.40
2019-03-01T04:55:37.551Z,30.65
2019-03-01T04:58:08.695Z,25.97
2019-03-01T05:00:38.241Z,25.90
2019-03-01T05:03:07.839Z,25.95
2019-03-01T05:05:37.473Z,23.30
2019-03-01T05:08:07.029Z,23.20
2019-03-01T05:10:36.568Z,26.50
2019-03-01T05:13:06.135Z,25.90
2019-03-01T05:15:35.687Z,24.27
2019-03-01T05:18:05.280Z,28.70
2019-03-01T05:20:34.831Z,21.12
2019-03-01T05:23:04.420Z,22.22
2019-03-01T05:25:33.968Z,22.10
2019-03-01T05:28:03.573Z,22.57
2019-03-01T05:30:33.124Z,24.40
2019-03-01T05:33:02.684Z,25.13
2019-03-01T05:35:32.215Z,22.13
2019-03-01T05:40:42.839Z,22.60
2019-03-01T05:43:12.426Z,22.60
2019-03-01T05:45:42.066Z,24.65
2019-03-01T05:48:11.617Z,23.65
2019-03-01T05:50:41.272Z,24.57
2019-03-01T05:53:10.820Z,22.70
2019-03-01T05:55:40.348Z,21.62
2019-03-01T05:58:48.483Z,20.83
2019-03-01T06:01:40.005Z,20.50
2019-03-01T06:04:48.107Z,20.93
2019-03-01T06:07:56.177Z,20.03
2019-03-01T06:10:33.305Z,20.90
2019-03-01T06:13:41.384Z,22.03
2019-03-01T06:16:37.237Z,20.70
2019-03-01T06:19:45.309Z,21.73
2019-03-01T06:22:54.655Z,18.40
2019-03-01T06:25:56.677Z,19.42
2019-03-01T06:28:49.824Z,19.40
2019-03-01T06:31:57.933Z,22.17
2019-03-01T06:35:06.011Z,26.13
2019-03-01T06:38:22.264Z,19.20
2019-03-01T06:41:32.583Z,19.83
2019-03-01T06:44:40.644Z,22.00
2019-03-01T06:47:41.653Z,22.67
2019-03-01T06:50:30.219Z,24.40
2019-03-01T06:52:59.805Z,22.90
2019-03-01T06:55:45.179Z,19.80
2019-03-01T06:58:35.399Z,19.27
2019-03-01T07:04:25.403Z,17.50
2019-03-01T07:06:54.932Z,19.30
2019-03-01T07:09:24.482Z,20.07
2019-03-01T07:11:54.035Z,20.10
2019-03-01T07:14:23.552Z,18.53
2019-03-01T07:17:12.180Z,18.77
2019-03-01T07:19:41.749Z,19.40
2019-03-01T07:22:11.259Z,18.05
2019-03-01T07:24:40.878Z,19.05
2019-03-01T07:27:12.268Z,18.00
2019-03-01T07:29:47.566Z,18.50
2019-03-01T07:32:17.139Z,18.57
2019-03-01T07:34:46.892Z,18.50
2019-03-01T07:37:16.441Z,16.87
2019-03-01T07:39:46.026Z,19.00
2019-03-01T07:42:15.571Z,18.07
2019-03-01T07:44:45.350Z,17.20
2019-03-01T07:47:14.980Z,17.50
2019-03-01T07:50:03.594Z,17.80
2019-03-01T07:52:33.162Z,17.85
2019-03-01T07:55:02.713Z,15.83
2019-03-01T07:57:32.316Z,16.63
2019-03-01T08:00:02.390Z,18.32
2019-03-01T08:02:35.983Z,19.50
2019-03-01T08:05:23.927Z,19.70
2019-03-01T08:07:56.348Z,20.60
2019-03-01T08:10:43.901Z,19.80
2019-03-01T08:13:14.749Z,20.08
2019-03-01T08:16:16.548Z,21.57
2019-03-01T08:18:47.610Z,21.10
2019-03-01T08:21:24.261Z,21.20
2019-03-01T08:23:53.803Z,24.35
2019-03-01T08:26:23.360Z,22.30
2019-03-01T08:28:54.702Z,24.40
2019-03-01T08:31:43.254Z,26.07
2019-03-01T08:34:14.364Z,23.97
2019-03-01T08:37:03.127Z,24.23
2019-03-01T08:39:32.679Z,27.03
2019-03-01T08:42:02.203Z,25.67
2019-03-01T08:44:31.801Z,25.70
2019-03-01T08:47:01.360Z,25.80
2019-03-01T08:49:31.182Z,23.83
2019-03-01T08:52:01.448Z,27.32
2019-03-01T08:54:31.751Z,26.30
2019-03-01T08:57:22.712Z,26.67
2019-03-01T08:59:57.253Z,26.17
2019-03-01T09:02:26.827Z,28.97
2019-03-01T09:04:56.396Z,32.23
2019-03-01T09:07:27.214Z,29.63
2019-03-01T09:10:02.713Z,30.15
2019-03-01T09:12:32.285Z,35.20
2019-03-01T09:15:04.468Z,33.43
2019-03-01T09:17:38.298Z,31.40
2019-03-01T09:20:09.513Z,32.85
2019-03-01T09:22:39.074Z,30.60
2019-03-01T09:25:09.044Z,34.58
2019-03-01T09:30:27.231Z,29.10
2019-03-01T09:32:56.795Z,34.17
2019-03-01T09:35:45.553Z,29.40
2019-03-01T09:38:15.236Z,29.05
2019-03-01T09:40:44.789Z,28.65
2019-03-01T09:43:14.391Z,28.13
2019-03-01T09:45:45.727Z,30.87
2019-03-01T09:48:34.645Z,29.80
2019-03-01T09:51:16.695Z,30.97
2019-03-01T09:53:46.199Z,30.57
2019-03-01T09:56:15.745Z,29.20
2019-03-01T09:58:45.319Z,28.70
2019-03-01T10:01:16.795Z,25.30
2019-03-01T10:03:48.011Z,29.07
2019-03-01T10:06:17.596Z,28.13
2019-03-01T10:08:47.126Z,24.77
2019-03-01T10:11:16.697Z,23.97
2019-03-01T10:13:46.301Z,25.43
2019-03-01T10:16:15.928Z,26.75
2019-03-01T10:18:45.480Z,25.03
2019-03-01T10:21:15.031Z,22.65
2019-03-01T10:24:03.695Z,23.10
2019-03-01T10:26:33.288Z,21.60
2019-03-01T10:29:02.927Z,24.17
2019-03-01T10:31:32.532Z,19.60
2019-03-01T10:34:02.945Z,24.80
2019-03-01T10:36:32.480Z,24.17
2019-03-01T10:39:02.477Z,19.20
2019-03-01T10:41:33.852Z,20.53
2019-03-01T10:44:03.511Z,23.17
2019-03-01T10:46:34.780Z,21.50
2019-03-01T10:49:04.347Z,17.17
2019-03-01T10:51:34.024Z,16.40
2019-03-01T10:54:03.562Z,18.30
2019-03-01T10:56:33.143Z,17.27
2019-03-01T10:59:02.668Z,15.77
2019-03-01T11:01:32.324Z,15.80
2019-03-01T11:07:15.473Z,15.13
2019-03-01T11:09:45.072Z,14.13
2019-03-01T11:12:14.617Z,16.73
2019-03-01T11:15:03.467Z,14.03
2019-03-01T11:17:33.092Z,12.35
2019-03-01T11:20:02.932Z,13.70
2019-03-01T11:22:34.125Z,12.63
2019-03-01T11:25:03.950Z,11.43
2019-03-01T11:27:34.452Z,11.30
2019-03-01T11:30:04.161Z,9.65
2019-03-01T11:32:33.751Z,10.60
2019-03-01T11:35:15.593Z,10.37
2019-03-01T11:37:45.319Z,9.23
2019-03-01T11:40:17.618Z,6.87
2019-03-01T11:42:47.283Z,9.27
2019-03-01T11:45:17.826Z,9.25
2019-03-01T11:47:47.481Z,10.23
2019-03-01T11:50:19.174Z,6.70
2019-03-01T11:52:48.844Z,9.97
2019-03-01T11:58:07.177Z,9.93
2019-03-01T12:00:36.949Z,11.97
2019-03-01T12:03:06.706Z,10.30
2019-03-01T12:05:36.426Z,11.33
2019-03-01T12:08:06.450Z,10.90
2019-03-01T12:10:36.311Z,10.32
2019-03-01T12:13:06.118Z,10.20
2019-03-01T12:15:54.893Z,11.33
2019-03-01T12:21:06.092Z,9.70
2019-03-01T12:23:35.626Z,10.50
2019-03-01T12:26:05.166Z,10.60
2019-03-01T12:28:34.713Z,10.30
2019-03-01T12:31:04.347Z,12.33
2019-03-01T12:33:33.901Z,12.07
2019-03-01T12:36:15.614Z,12.20
2019-03-01T12:38:45.369Z,14.07
2019-03-01T12:41:15.243Z,14.55
2019-03-01T12:43:45.319Z,12.75
2019-03-01T12:46:15.340Z,10.40
2019-03-01T12:48:45.304Z,9.15
2019-03-01T12:51:15.326Z,9.25
2019-03-01T12:53:45.348Z,7.78
2019-03-01T12:56:15.333Z,10.20
2019-03-01T12:58:44.969Z,7.83
2019-03-01T13:01:15.532Z,6.85
2019-03-01T13:03:45.103Z,6.90
2019-03-01T13:06:35.382Z,7.70
2019-03-01T13:09:52.610Z,8.63
2019-03-01T13:12:22.368Z,8.23
2019-03-01T13:15:13.807Z,7.23
2019-03-01T13:17:49.998Z,9.10
2019-03-01T13:20:26.750Z,9.20
2019-03-01T13:22:56.314Z,8.30
2019-03-01T13:25:29.448Z,8.27
2019-03-01T13:28:04.038Z,10.10
2019-03-01T13:30:35.795Z,9.93
2019-03-01T13:33:13.879Z,10.07
2019-03-01T13:35:55.779Z,11.13
2019-03-01T13:38:25.375Z,11.60
2019-03-01T13:41:14.154Z,10.90
2019-03-01T13:43:43.684Z,10.93
2019-03-01T13:46:18.461Z,12.20
2019-03-01T13:48:50.833Z,10.30
2019-03-01T13:51:38.318Z,9.33
2019-03-01T13:54:26.937Z,8.43
2019-03-01T13:56:56.434Z,8.20
2019-03-01T13:59:25.999Z,6.90
2019-03-01T14:01:55.574Z,9.40
2019-03-01T14:04:25.101Z,9.00
2019-03-01T14:06:54.642Z,7.70
2019-03-01T14:09:27.254Z,8.30
2019-03-01T14:12:14.747Z,10.80
2019-03-01T14:14:44.336Z,12.07
2019-03-01T14:17:14.125Z,13.20
2019-03-01T14:19:43.647Z,9.90
2019-03-01T14:22:13.995Z,11.47
2019-03-01T14:24:50.066Z,11.83
2019-03-01T14:27:19.626Z,10.97
2019-03-01T14:29:53.633Z,10.23
2019-03-01T14:32:25.606Z,9.70
2019-03-01T14:34:55.342Z,10.10
2019-03-01T14:37:24.909Z,11.30
2019-03-01T14:40:13.745Z,10.60
2019-03-01T14:42:46.484Z,10.30
2019-03-01T14:45:25.562Z,8.83
2019-03-01T14:53:43.310Z,10.03
2019-03-01T14:56:21.495Z,12.00
2019-03-01T14:59:20.539Z,9.68
2019-03-01T15:02:14.990Z,10.17
2019-03-01T15:04:44.523Z,12.77
2019-03-01T15:07:14.036Z,11.07
2019-03-01T15:09:43.598Z,10.07
2019-03-01T15:12:19.678Z,10.47
2019-03-01T15:14:50.843Z,11.47
2019-03-01T15:17:21.819Z,10.35
2019-03-01T15:20:11.855Z,9.80
2019-03-01T15:22:45.596Z,9.83
2019-03-01T15:25:33.445Z,8.67
2019-03-01T15:28:02.952Z,9.13
2019-03-01T15:33:14.150Z,8.60
2019-03-01T15:35:44.359Z,11.30
2019-03-01T15:38:13.873Z,10.67
2019-03-01T15:40:43.445Z,10.20
2019-03-01T15:43:13.031Z,10.37
2019-03-01T15:45:54.234Z,9.50
2019-03-01T15:48:23.754Z,8.17
2019-03-01T15:50:53.285Z,8.73
2019-03-01T15:53:24.932Z,8.83
2019-03-01T15:56:02.164Z,7.50
2019-03-01T15:58:36.325Z,7.87
2019-03-01T16:04:10.049Z,7.70
2019-03-01T16:06:39.589Z,8.58
2019-03-01T16:09:33.171Z,7.93
2019-03-01T16:12:02.714Z,9.15
2019-03-01T16:14:32.299Z,10.03
2019-03-01T16:20:05.544Z,7.50
2019-03-01T16:22:35.156Z,8.10
2019-03-01T16:25:07.233Z,6.83
2019-03-01T16:27:36.863Z,7.90
2019-03-01T16:30:08.530Z,8.50
2019-03-01T16:35:43.011Z,6.70
2019-03-01T16:38:12.472Z,4.70
2019-03-01T16:40:41.997Z,5.40
2019-03-01T16:43:11.532Z,5.57
2019-03-01T16:45:41.176Z,5.37
2019-03-01T16:48:13.637Z,6.13
2019-03-01T16:50:47.187Z,5.00
2019-03-01T16:53:16.720Z,4.27
2019-03-01T16:55:46.253Z,4.40
2019-03-01T16:58:15.757Z,5.10
2019-03-01T17:00:45.319Z,4.23
2019-03-01T17:03:17.868Z,7.97
2019-03-01T17:05:52.071Z,4.67
2019-03-01T17:08:21.595Z,4.70
2019-03-01T17:10:51.793Z,5.00
2019-03-01T17:13:41.450Z,4.95
2019-03-01T17:16:11.018Z,5.43
2019-03-01T17:18:40.539Z,5.80
2019-03-01T17:21:29.172Z,6.00
2019-03-01T17:23:58.674Z,5.20
2019-03-01T17:26:29.970Z,6.37
2019-03-01T17:29:18.590Z,5.70
2019-03-01T17:31:48.152Z,5.20
2019-03-01T17:34:17.684Z,6.50
2019-03-01T17:36:49.870Z,5.10
2019-03-01T17:39:37.556Z,6.03
2019-03-01T17:42:07.080Z,5.45
2019-03-01T17:44:36.618Z,3.90
2019-03-01T17:47:09.670Z,3.70
2019-03-01T17:49:58.822Z,4.07
2019-03-01T17:58:05.395Z,4.40
2019-03-01T18:03:20.978Z,4.93
2019-03-01T18:05:50.532Z,3.20
2019-03-01T18:08:20.103Z,3.90
2019-03-01T18:10:49.667Z,4.03
2019-03-01T18:13:19.442Z,4.83
2019-03-01T18:15:49.701Z,5.03
2019-03-01T18:18:39.288Z,4.35
2019-03-01T18:21:10.194Z,4.05
2019-03-01T18:23:59.170Z,4.40
2019-03-01T18:29:34.824Z,4.10
2019-03-01T18:32:07.014Z,5.50
2019-03-01T18:34:41.368Z,5.00
2019-03-01T18:37:19.222Z,4.33
2019-03-01T18:39:42.292Z,5.17
2019-03-01T18:42:11.849Z,6.07
2019-03-01T18:45:03.604Z,4.50
2019-03-01T18:47:37.447Z,4.80
2019-03-01T18:50:12.644Z,4.50
2019-03-01T18:52:42.227Z,4.55
2019-03-01T18:55:13.713Z,5.72
2019-03-01T18:58:02.399Z,5.03
2019-03-01T19:00:35.640Z,4.67
2019-03-01T19:03:24.375Z,4.20
2019-03-01T19:05:53.882Z,4.50
2019-03-01T19:08:25.093Z,3.70
2019-03-01T19:10:54.640Z,3.33
2019-03-01T19:13:25.628Z,4.15
2019-03-01T19:16:00.987Z,3.50
2019-03-01T19:18:32.142Z,3.83
2019-03-01T19:21:01.643Z,3.77
2019-03-01T19:23:33.345Z,3.43
2019-03-01T19:26:23.392Z,3.97
2019-03-01T19:28:52.910Z,2.70
2019-03-01T19:31:24.505Z,3.67
2019-03-01T19:33:59.007Z,3.40
2019-03-01T19:36:28.571Z,3.20
2019-03-01T19:39:17.116Z,3.27
2019-03-01T19:41:46.686Z,3.30
2019-03-01T19:44:16.264Z,3.60
2019-03-01T19:46:47.698Z,3.20
2019-03-01T19:49:36.155Z,2.80
2019-03-01T19:52:05.699Z,4.45
2019-03-01T19:54:35.718Z,3.40
2019-03-01T19:57:11.942Z,3.10
2019-03-01T19:59:41.657Z,4.30
2019-03-01T20:02:11.314Z,3.53
2019-03-01T20:04:40.846Z,3.57
2019-03-01T20:07:29.705Z,3.27
2019-03-01T20:09:59.298Z,3.27
2019-03-01T20:12:28.974Z,3.87
2019-03-01T20:14:58.467Z,3.70
2019-03-01T20:17:30.311Z,3.40
2019-03-01T20:20:19.103Z,3.60
2019-03-01T20:22:50.465Z,3.58
2019-03-01T20:25:39.970Z,4.40
2019-03-01T20:28:11.488Z,3.65
2019-03-01T20:31:01.515Z,3.03
2019-03-01T20:33:36.365Z,4.80
2019-03-01T20:36:05.870Z,4.13
2019-03-01T20:38:36.995Z,6.10
2019-03-01T20:41:25.755Z,4.80
2019-03-01T20:43:55.296Z,4.50
2019-03-01T20:49:43.672Z,4.67
2019-03-01T20:52:13.176Z,5.70
2019-03-01T20:54:42.743Z,5.10
2019-03-01T20:57:12.248Z,6.27
2019-03-01T21:00:01.928Z,5.28
2019-03-01T21:02:51.782Z,5.05
2019-03-01T21:05:24.879Z,5.37
2019-03-01T21:08:11.785Z,6.03
2019-03-01T21:10:41.394Z,4.10
2019-03-01T21:13:12.495Z,5.90
2019-03-01T21:16:01.317Z,5.53
2019-03-01T21:18:34.067Z,5.22
2019-03-01T21:21:21.196Z,5.07
2019-03-01T21:23:51.050Z,4.67
2019-03-01T21:26:41.199Z,4.80
2019-03-01T21:32:05.406Z,4.37
2019-03-01T21:34:54.206Z,4.55
2019-03-01T21:37:23.746Z,3.70
2019-03-01T21:39:55.627Z,3.20
2019-03-01T21:42:33.623Z,3.60
2019-03-01T21:47:57.577Z,3.37
2019-03-01T21:50:27.067Z,4.30
2019-03-01T21:52:56.611Z,3.90
2019-03-01T21:55:28.518Z,3.90
2019-03-01T21:58:16.556Z,4.13
2019-03-01T22:00:46.156Z,3.47
2019-03-01T22:03:15.852Z,3.50
2019-03-01T22:05:48.613Z,3.43
2019-03-01T22:08:49.801Z,2.83
2019-03-01T22:11:20.945Z,3.55
2019-03-01T22:13:56.985Z,3.47
2019-03-01T22:16:26.508Z,4.20
2019-03-01T22:18:58.643Z,3.47
2019-03-01T22:21:46.441Z,3.70
2019-03-01T22:24:35.051Z,3.30
2019-03-01T22:27:04.589Z,3.57
2019-03-01T22:29:34.148Z,3.70
2019-03-01T22:32:03.662Z,3.70
2019-03-01T22:34:33.155Z,3.33
2019-03-01T22:37:02.814Z,3.50
2019-03-01T22:39:32.307Z,3.67
2019-03-01T22:45:15.590Z,3.97
2019-03-01T22:47:45.117Z,3.50
2019-03-01T22:50:15.325Z,3.63
2019-03-01T22:52:44.924Z,3.10
2019-03-01T22:55:15.241Z,3.60
2019-03-01T22:57:45.185Z,2.90
2019-03-01T23:01:33.548Z,3.72
2019-03-01T23:04:04.855Z,3.12
2019-03-01T23:06:34.364Z,3.23
2019-03-01T23:12:04.711Z,3.87
2019-03-01T23:14:38.324Z,3.13
2019-03-01T23:17:07.875Z,3.97
2019-03-01T23:19:39.167Z,2.97
2019-03-01T23:22:27.802Z,3.33
2019-03-01T23:24:57.284Z,3.00
2019-03-01T23:27:28.501Z,3.40
2019-03-01T23:30:17.420Z,3.47
2019-03-01T23:32:48.864Z,2.63
2019-03-01T23:38:05.408Z,3.03
2019-03-01T23:40:35.863Z,3.50
2019-03-01T23:43:11.867Z,2.90
2019-03-01T23:45:42.486Z,2.80
2019-03-01T23:48:31.796Z,2.87
2019-03-01T23:51:01.331Z,3.33
2019-03-01T23:53:34.048Z,3.50
2019-03-01T23:56:07.311Z,3.33
2019-03-01T23:58:36.886Z,3.60
